Flight Track Log - Related Links

Times and Time Zones

All times are in EDT time to prevent confusion due to time zone crossing. See the SWA3497 flight status page for this flight to view local times or setup timezone preferences in your user account.

Time Position Orientation Groundspeed Altitude Reporting Facility
EDT Latitude Longitude Course Direction KTS MPH feet Rate Location/Type
Thu 12:35:26 PM 38.9000 -77.4667 226° Southwest 179 206 3,800  Level Potomac TRACON
Thu 12:36:26 PM 38.8500 -77.5333 226° Southwest 240 276 6,800 3,632 Climbing Potomac TRACON
Thu 12:37:20 PM 38.8333 -77.6000 252° West 273 314 10,700 2,710 Climbing Potomac TRACON
Thu 12:37:59 PM 38.8369 -77.6783 273° West 278 320 11,000 1,576 Climbing Washington Center
Thu 12:38:59 PM 38.8414 -77.7850 273° West 330 380 13,300 2,850 Climbing Washington Center
Thu 12:39:59 PM 38.8450 -77.9186 272° West 363 418 16,700 2,500 Climbing Washington Center
Thu 12:40:59 PM 38.8486 -78.0519 272° West 381 438 18,300 2,479 Climbing Washington Center
Thu 12:42:00 PM 38.8539 -78.1986 273° West 394 453 21,700 3,250 Climbing Washington Center
Thu 12:42:59 PM 38.8528 -78.3478 269° West 410 472 24,800 2,672 Climbing Washington Center
Thu 12:43:59 PM 38.8511 -78.5025 269° West 424 488 27,000 1,100 Climbing Washington Center
Thu 12:44:59 PM 38.8494 -78.6569 269° West 440 506 27,000 450 Level Washington Center
Thu 12:45:59 PM 38.8472 -78.8142 269° West 440 506 27,900 2,100 Climbing Washington Center
Thu 12:46:59 PM 38.8453 -78.9686 269° West 440 506 31,200 2,550 Climbing Washington Center
Thu 12:47:59 PM 38.8428 -79.1233 269° West 440 506 33,000 1,700 Climbing Washington Center
Thu 12:48:59 PM 38.8278 -79.2769 263° West 440 506 34,600 992 Climbing Washington Center
Thu 12:50:00 PM 38.8022 -79.4275 258° West 440 506 35,000 200 Climbing Washington Center
Thu 12:50:59 PM 38.7742 -79.5833 257° West 449 517 35,000  Level Washington Center
Thu 12:51:59 PM 38.7483 -79.7336 258° West 449 517 35,000  Level Washington Center
Thu 12:52:59 PM 38.7181 -79.8811 255° West 443 510 35,000  Level Washington Center
Thu 12:53:59 PM 38.6894 -80.0336 257° West 443 510 35,000 850 Level Washington Center
Thu 12:54:59 PM 38.6603 -80.1994 257° West 448 516 36,700 1,750 Climbing Washington Center
Thu 12:55:35 PM 38.6436 -80.2672 253° West 434 499 37,800 1,856 Climbing Indianapolis Center
Thu 12:56:36 PM 38.6153 -80.4167 256° West 433 498 39,700 1,073 Climbing Indianapolis Center
Thu 12:57:38 PM 38.5881 -80.5600 256° West 419 482 40,000 145 Climbing Indianapolis Center
Thu 12:58:40 PM 38.5619 -80.7053 257° West 418 481 40,000  Level Indianapolis Center
Thu 12:59:41 PM 38.5333 -80.8467 256° West 412 474 40,000  Level Indianapolis Center
Thu 01:00:43 PM 38.4989 -81.0197 256° West 416 479 40,000  Level Indianapolis Center
Thu 01:01:44 PM 38.4714 -81.1622 256° West 413 475 40,000  Level Indianapolis Center
Thu 01:02:45 PM 38.4433 -81.3056 256° West 413 475 40,000  Level Indianapolis Center
Thu 01:03:47 PM 38.4133 -81.4489 255° West 413 475 40,000  Level Indianapolis Center
Thu 01:04:48 PM 38.3853 -81.5925 256° West 413 475 40,000  Level Indianapolis Center
Thu 01:05:50 PM 38.3572 -81.7311 256° West 404 465 40,000  Level Indianapolis Center
Thu 01:06:51 PM 38.3225 -81.8672 252° West 401 461 40,000  Level Indianapolis Center
Thu 01:07:53 PM 38.2850 -82.0003 250° West 399 459 40,000  Level Indianapolis Center
Thu 01:08:54 PM 38.2472 -82.1347 250° West 401 461 40,000 -244 Level Indianapolis Center
Thu 01:09:56 PM 38.2111 -82.2686 251° West 401 461 39,500 -683 Descending Indianapolis Center
Thu 01:10:57 PM 38.1728 -82.4017 250° West 399 459 38,600 -976 Descending Indianapolis Center
Thu 01:11:59 PM 38.1286 -82.5564 250° West 410 472 37,500 -1,073 Descending Indianapolis Center
Thu 01:13:00 PM 38.0889 -82.6911 249° West 408 470 36,400 -2,244 Descending Indianapolis Center
Thu 01:14:02 PM 38.0489 -82.8289 250° West 416 479 32,900 -2,129 Descending Indianapolis Center
Thu 01:15:04 PM 38.0075 -82.9750 250° West 435 501 32,000 -439 Descending Indianapolis Center
Thu 01:16:05 PM 37.9644 -83.1194 249° West 439 505 32,000 -492 Level Indianapolis Center
Thu 01:17:06 PM 37.9142 -83.2919 250° West 447 514 31,000 -1,561 Descending Indianapolis Center
Thu 01:18:08 PM 37.8714 -83.4325 249° West 433 498 28,800 -2,098 Descending Indianapolis Center
Thu 01:19:09 PM 37.8322 -83.5656 250° West 408 470 26,700 -1,707 Descending Indianapolis Center
Thu 01:20:11 PM 37.7931 -83.6975 249° West 402 463 25,300 -1,220 Descending Indianapolis Center
Thu 01:21:12 PM 37.7539 -83.8256 249° West 394 453 24,200 -634 Descending Indianapolis Center
Thu 01:22:14 PM 37.7158 -83.9525 249° West 389 448 24,000 -439 Descending Indianapolis Center
Thu 01:23:15 PM 37.6772 -84.0800 249° West 389 448 23,300 -878 Descending Indianapolis Center
Thu 01:24:17 PM 37.6322 -84.2264 249° West 386 444 22,200 -1,024 Descending Indianapolis Center
Thu 01:25:18 PM 37.5958 -84.3486 249° West 376 433 21,200 -976 Descending Indianapolis Center
Thu 01:26:20 PM 37.5578 -84.4692 248° West 371 427 20,200 -1,171 Descending Indianapolis Center
Thu 01:27:21 PM 37.5228 -84.5867 249° West 360 414 18,800 -1,869 Descending Indianapolis Center
Thu 01:28:22 PM 37.4911 -84.7019 251° West 349 402 16,400 -2,439 Descending Indianapolis Center
Thu 01:29:24 PM 37.5439 -84.8036 303° West 352 405 13,800 -2,390 Descending Indianapolis Center
Thu 01:30:25 PM 37.6114 -84.8953 313° West 355 409 11,500 -1,707 Descending Indianapolis Center
Thu 01:31:27 PM 37.6781 -84.9900 312° West 312 359 10,300 -780 Descending Indianapolis Center
Thu 01:32:28 PM 37.7353 -85.0667 313° West 299 344 9,900 -195 Descending Indianapolis Center
Thu 01:33:30 PM 37.7908 -85.1422 313° West 291 335 9,900 -98 Level Indianapolis Center
Thu 01:34:31 PM 37.8439 -85.2178 312° West 289 333 9,700 -462 Descending Indianapolis Center
Thu 01:35:01 PM 37.8753 -85.2581 315° West 286 329 9,200 -960 Descending FAA TRACON SMA TRACON (SMA)
Thu 01:35:21 PM 37.8917 -85.2814 312° West 286 329 8,900 -900 Descending FAA TRACON SMA TRACON (SMA)
Thu 01:35:41 PM 37.9078 -85.3047 311° West 285 328 8,600 -1,050 Descending FAA TRACON SMA TRACON (SMA)
Thu 01:36:01 PM 37.9283 -85.3333 312° West 285 328 8,200 -1,050 Descending FAA TRACON SMA TRACON (SMA)
Thu 01:36:21 PM 37.9450 -85.3561 313° West 285 328 7,900 -900 Descending FAA TRACON SMA TRACON (SMA)
Thu 01:36:41 PM 37.9614 -85.3792 312° West 287 330 7,600 -1,200 Descending FAA TRACON SMA TRACON (SMA)
Thu 01:37:01 PM 37.9822 -85.4078 313° West 286 329 7,100 -1,050 Descending FAA TRACON SMA TRACON (SMA)
Thu 01:37:21 PM 37.9986 -85.4311 312° West 285 328 6,900 -900 Descending FAA TRACON SMA TRACON (SMA)
Thu 01:37:41 PM 38.0153 -85.4539 313° West 285 328 6,500 -1,050 Descending FAA TRACON SMA TRACON (SMA)
Thu 01:38:01 PM 38.0353 -85.4831 311° West 284 327 6,200 -900 Descending FAA TRACON SMA TRACON (SMA)
Thu 01:38:21 PM 38.0519 -85.5056 313° West 284 327 5,900 -450 Descending FAA TRACON SMA TRACON (SMA)
Thu 01:38:41 PM 38.0681 -85.5286 312° West 283 326 5,900 -146 Level FAA TRACON SMA TRACON (SMA)
Thu 01:39:02 PM 38.0883 -85.5567 313° West 279 321 5,800  Descending FAA TRACON SMA TRACON (SMA)
Thu 01:39:22 PM 38.1067 -85.5758 321° Northwest 281 323 5,900 150 Climbing FAA TRACON SMA TRACON (SMA)
Thu 01:39:42 PM 38.1303 -85.5875 339° North 292 336 5,900  Level FAA TRACON SMA TRACON (SMA)
Thu 01:40:02 PM 38.1611 -85.5989 344° North 298 343 5,900  Level FAA TRACON SMA TRACON (SMA)
Thu 01:40:24 PM 38.1861 -85.6083 343° North 302 348 5,900  Level FAA TRACON SMA TRACON (SMA)
Thu 01:40:44 PM 38.2172 -85.6197 344° North 303 349 5,900  Level FAA TRACON SMA TRACON (SMA)
Thu 01:41:01 PM 38.2411 -85.6286 344° North 292 336 5,900 -162 Level FAA TRACON SMA TRACON (SMA)
Thu 01:41:21 PM 38.2642 -85.6375 343° North 284 327 5,800 -450 Descending FAA TRACON SMA TRACON (SMA)
Thu 01:41:41 PM 38.2864 -85.6456 344° North 273 314 5,600 -732 Descending FAA TRACON SMA TRACON (SMA)
Thu 01:42:02 PM 38.3128 -85.6547 345° North 256 295 5,300 -878 Descending FAA TRACON SMA TRACON (SMA)
Thu 01:42:22 PM 38.3319 -85.6628 342° North 241 277 5,000 -923 Descending FAA TRACON SMA TRACON (SMA)
Thu 01:42:41 PM 38.3428 -85.6797 309° West 227 261 4,700 -1,231 Descending FAA TRACON SMA TRACON (SMA)
Thu 01:43:01 PM 38.3422 -85.7028 268° West 181 208 4,200 -1,100 Descending FAA TRACON SMA TRACON (SMA)
Thu 01:43:41 PM 38.3381 -85.7364 261° West 160 184 3,600 -1,000 Descending FAA TRACON SMA TRACON (SMA)
Thu 01:44:01 PM 38.3250 -85.7442 205° Southwest 143 165 3,200 -1,350 Descending FAA TRACON SMA TRACON (SMA)
Thu 01:44:21 PM 38.3142 -85.7481 196° South 132 152 2,700 -1,200 Descending FAA TRACON SMA TRACON (SMA)
Thu 01:44:41 PM 38.3031 -85.7525 197° South 133 153 2,400 -450 Descending FAA TRACON SMA TRACON (SMA)
Thu 01:45:01 PM 38.2892 -85.7586 199° South 136 157 2,400  Level FAA TRACON SMA TRACON (SMA)
Thu 01:45:21 PM 38.2786 -85.7614 192° South 132 152 2,400 -450 Level FAA TRACON SMA TRACON (SMA)
Thu 01:45:41 PM 38.2647 -85.7578 168° South 131 151 2,100 -732 Descending FAA TRACON SMA TRACON (SMA)
Thu 01:46:02 PM 38.2539 -85.7547 168° South 129 148 1,900 -600 Descending FAA TRACON SMA TRACON (SMA)
Thu 01:46:21 PM 38.2442 -85.7514 165° South 122 140 1,700 -615 Descending FAA TRACON SMA TRACON (SMA)
Thu 01:46:41 PM 38.2347 -85.7478 163° South 116 133 1,500 -600 Descending FAA TRACON SMA TRACON (SMA)
Thu 01:47:01 PM 38.2233 -85.7436 164° South 110 127 1,300 -600 Descending FAA TRACON SMA TRACON (SMA)
Thu 01:47:21 PM 38.2142 -85.7408 167° South 109 125 1,100 -600 Descending FAA TRACON SMA TRACON (SMA)
Thu 01:47:41 PM 38.2053 -85.7375 164° South 109 125 900 -600 Descending FAA TRACON SMA TRACON (SMA)

Login

Don't have an account? Register now (free) for customized features, flight alerts, and more!